首页
METAR-TAF:

METAR-TAF

机场 :

阿图罗·梅里诺·贝尼特斯准将国际机场

圣地亚哥-德智利, 智利

纬度: 33-23S, 经度: 070-47W, 海拔: 475米

当前天气观测

该预报发布于35分钟前的18:00 UTC
风速3节,风向,在东转东北西南之间变化
温度 18°C
湿度 52%
气压 1020 hPa
能見度: 8000

METAR: SCEL 171800Z 18003KT 060V230 8000 NSC 18/08 Q1020 NOSIG

时间: 15:35 (18:35 UTC)

预报

该预报发布于2小时和25分钟前的16:10 UTC
预报有效从17日的 18点(UTC)到 18日的 18点(UTC)
风速8节,风向
能見度: 8000
散云层高于18000英尺
多云层高于20000英尺
成为
从 17日的 19点(UTC)到 17日的 21点(UTC)
散云层高于16000英尺
多云层高于18000英尺
成为
从 18日的 02点(UTC)到 18日的 04点(UTC)
风速4节,风向南转南东
散云层高于2000英尺
多云层高于16000英尺
短暂存在
从 18日的 06点(UTC)到 18日的 12点(UTC)
风速2节,风向多变
能見度: 6000
散云层高于1000英尺
多云层高于2000英尺
成为
从 18日的 14点(UTC)到 日的 点(UTC)
风速6节,风向
能见度10公里或以上
散云层高于2000英尺
散云层高于4000英尺

TAF: SCEL 171610Z 1718/1818 19008KT 8000 SCT180 BKN200 TX19/1719Z TN07/1811Z BECMG 1719/1721 SCT160 BKN180 BECMG 1802/1804 16004KT SCT020 BKN160 TEMPO 1806/1812 VRB02KT 6000 SCT010 BKN020 BECMG 1814/ 1816 17006KT 9999 SCT020 SCT040

超过4000个机场的气象观测和天气预报(METAR&TAF报告)。

可查询的气象台以黄色和红色小点在地图上表示。

将鼠标移到小点上方,可查看气象台名称。

然后点击查看天气观测和预报。

如需切换地图:点击带黑十字的绿色按钮放大地图;点击带横线的绿色按钮缩小地图;或者点击绿色箭头查看邻近地区的地图。


METAR-TAF: